Time;durP1;ratioP1;P1;durP2;ratioP2;P2;SDS_P1;SDS_P2;PMS_P1;PMS_P2;Temp;Humidity;BMP_temperature;BMP_pressure;BME280_temperature;BME280_humidity;BME280_pressure;Samples;Min_cycle;Max_cycle;Signal;HPM_P1;HPM_P2
2022/10/25 00:01:49;;;;;;;32.75;30.08;;;16.50;99.90;;;;;;4858707;29;20053;-84
2022/10/25 00:04:15;;;;;;;38.85;35.97;;;16.50;99.90;;;;;;4878459;29;20491;-83
2022/10/25 00:06:41;;;;;;;38.70;34.72;;;16.60;99.90;;;;;;4865569;29;20048;-83
2022/10/25 00:09:08;;;;;;;40.75;37.40;;;16.50;99.90;;;;;;4908971;29;20067;-84
2022/10/25 00:11:34;;;;;;;40.15;36.55;;;16.50;99.90;;;;;;4859709;29;20057;-84
2022/10/25 00:14:02;;;;;;;37.13;33.28;;;16.50;99.90;;;;;;4878463;29;20146;-83
2022/10/25 00:16:30;;;;;;;40.20;36.53;;;16.50;99.90;;;;;;4877946;29;20075;-83
2022/10/25 00:18:56;;;;;;;38.28;34.42;;;16.50;99.90;;;;;;4875416;29;20041;-83
2022/10/25 00:21:22;;;;;;;38.72;34.83;;;16.50;99.90;;;;;;4878026;29;20554;-84
2022/10/25 00:23:49;;;;;;;38.40;34.90;;;16.40;99.90;;;;;;4894110;29;20037;-84
2022/10/25 00:26:15;;;;;;;37.90;34.92;;;16.40;99.90;;;;;;4893822;29;20037;-83
2022/10/25 00:28:41;;;;;;;37.42;34.13;;;16.40;99.90;;;;;;4911311;29;20044;-84
2022/10/25 00:31:10;;;;;;;41.30;37.65;;;16.40;99.90;;;;;;4949814;28;20045;-83
2022/10/25 00:33:36;;;;;;;34.63;31.20;;;16.40;99.90;;;;;;4980555;28;20030;-83
2022/10/25 00:36:16;;;;;;;37.53;33.97;;;16.40;99.90;;;;;;4981184;28;20038;-83
2022/10/25 00:38:42;;;;;;;36.70;33.15;;;16.30;99.90;;;;;;4980715;28;20499;-83
2022/10/25 00:41:09;;;;;;;34.80;31.75;;;16.20;99.90;;;;;;4981183;28;20037;-83
2022/10/25 00:43:37;;;;;;;32.83;29.92;;;16.20;99.90;;;;;;4964785;28;20044;-84
2022/10/25 00:46:35;;;;;;;34.35;31.20;;;16.20;99.90;;;;;;5013165;28;20030;-83
2022/10/25 00:49:10;;;;;;;37.45;33.75;;;16.10;99.90;;;;;;4916861;29;20035;-83
2022/10/25 00:51:40;;;;;;;35.80;32.70;;;16.20;99.90;;;;;;4932946;29;20536;-83
2022/10/25 00:54:07;;;;;;;30.88;27.95;;;16.10;99.90;;;;;;4914831;29;20040;-83
2022/10/25 00:56:34;;;;;;;32.13;28.80;;;16.00;99.90;;;;;;4934441;29;20051;-83
2022/10/25 00:59:01;;;;;;;35.83;32.10;;;16.00;99.90;;;;;;4933223;29;20424;-83
2022/10/25 01:01:28;;;;;;;42.30;38.63;;;16.00;99.90;;;;;;4918099;29;20040;-83
2022/10/25 01:03:55;;;;;;;29.38;26.67;;;16.00;99.90;;;;;;4918142;29;20400;-83
2022/10/25 01:06:24;;;;;;;27.95;23.63;;;15.90;99.90;;;;;;4932965;29;20040;-83
2022/10/25 01:08:51;;;;;;;31.65;24.63;;;15.90;99.90;;;;;;4915491;29;20032;-84
2022/10/25 01:11:17;;;;;;;31.60;27.25;;;15.90;99.90;;;;;;4932636;29;20047;-83
2022/10/25 01:13:43;;;;;;;40.13;36.80;;;15.90;99.90;;;;;;4932772;29;20062;-84
2022/10/25 01:16:30;;;;;;;25.25;22.58;;;15.80;99.90;;;;;;4933482;29;20044;-83
2022/10/25 01:19:24;;;;;;;23.35;21.17;;;15.90;99.90;;;;;;4898403;29;20029;-84
2022/10/25 01:21:54;;;;;;;25.35;23.10;;;15.80;99.90;;;;;;4916199;29;20059;-84
2022/10/25 01:24:29;;;;;;;28.38;25.70;;;15.80;99.90;;;;;;4941949;28;20042;-84
2022/10/25 01:27:51;;;;;;;24.10;22.05;;;15.80;99.90;;;;;;4996339;28;20658;-84
2022/10/25 01:30:21;;;;;;;30.20;26.38;;;15.70;99.90;;;;;;4983528;28;20053;-84
2022/10/25 01:33:25;;;;;;;40.58;37.08;;;15.60;99.90;;;;;;4995523;28;20510;-84
2022/10/25 01:35:56;;;;;;;44.78;41.28;;;15.60;99.90;;;;;;4967851;28;20046;-84
2022/10/25 01:38:43;;;;;;;27.90;25.40;;;15.60;99.90;;;;;;4980128;28;20029;-83
2022/10/25 01:41:49;;;;;;;30.90;28.08;;;15.60;99.90;;;;;;4978792;28;20395;-83
2022/10/25 01:44:51;;;;;;;28.98;25.75;;;15.60;99.90;;;;;;4980135;28;20044;-84
2022/10/25 01:47:20;;;;;;;29.02;26.10;;;15.50;99.90;;;;;;4995081;28;20045;-84
2022/10/25 01:49:51;;;;;;;36.25;33.45;;;15.50;99.90;;;;;;4980140;28;20042;-84
2022/10/25 01:52:21;;;;;;;27.00;24.48;;;15.50;99.90;;;;;;4996035;28;20037;-84
2022/10/25 01:54:47;;;;;;;28.10;25.70;;;15.50;99.90;;;;;;4979878;28;20044;-83
2022/10/25 01:57:19;;;;;;;32.40;29.85;;;15.50;99.90;;;;;;4978873;28;20026;-84
2022/10/25 02:00:14;;;;;;;28.00;21.50;;;15.50;99.90;;;;;;4993867;28;20057;-83
2022/10/25 02:02:59;;;;;;;28.13;25.52;;;15.50;99.90;;;;;;4974327;28;20056;-83
2022/10/25 02:05:28;;;;;;;21.17;19.00;;;15.50;99.90;;;;;;4991339;28;20054;-84
2022/10/25 02:08:15;;;;;;;20.60;18.00;;;15.40;99.90;;;;;;5007677;28;20495;-84
2022/10/25 02:11:05;;;;;;;21.63;19.13;;;15.40;99.90;;;;;;5002274;28;20060;-84
2022/10/25 02:13:51;;;;;;;24.48;21.92;;;15.30;99.90;;;;;;4979254;28;20046;-84
2022/10/25 02:16:28;;;;;;;22.95;20.95;;;15.30;99.90;;;;;;4990271;28;20411;-83
2022/10/25 02:18:58;;;;;;;26.80;18.45;;;15.30;99.90;;;;;;4977273;28;20046;-84
2022/10/25 02:21:24;;;;;;;20.13;17.33;;;15.30;99.90;;;;;;4977363;28;20403;-84
2022/10/25 02:23:50;;;;;;;26.88;24.27;;;15.20;99.90;;;;;;4978362;28;20022;-84
2022/10/25 02:26:16;;;;;;;42.97;39.30;;;15.10;99.90;;;;;;4975238;28;20517;-84
2022/10/25 02:28:42;;;;;;;32.67;29.40;;;14.90;99.90;;;;;;4971348;28;20038;-84
2022/10/25 02:31:13;;;;;;;23.58;21.13;;;14.90;99.90;;;;;;4957293;28;20437;-84
2022/10/25 02:33:39;;;;;;;;;;;15.00;99.90;;;;;;4994866;28;20022;-84
2022/10/25 02:36:11;;;;;;;18.95;17.10;;;15.10;99.90;;;;;;4992604;28;19921;-84
2022/10/25 02:38:38;;;;;;;24.88;16.15;;;15.10;99.90;;;;;;5010851;28;20037;-83
2022/10/25 02:41:04;;;;;;;19.52;17.63;;;15.00;99.90;;;;;;4995004;28;20037;-84
2022/10/25 02:43:30;;;;;;;26.95;19.48;;;15.00;99.90;;;;;;5000532;28;20041;-84
2022/10/25 02:45:57;;;;;;;20.75;18.65;;;15.00;99.90;;;;;;4978573;28;20030;-84
2022/10/25 02:48:23;;;;;;;29.60;26.95;;;15.00;99.90;;;;;;4978745;28;20065;-84
2022/10/25 02:50:49;;;;;;;23.88;21.65;;;14.90;99.90;;;;;;5010260;28;20399;-83
2022/10/25 02:53:15;;;;;;;17.63;16.00;;;15.00;99.90;;;;;;4995316;28;20022;-83
2022/10/25 02:55:41;;;;;;;17.77;16.13;;;15.00;99.90;;;;;;4994932;28;20038;-83
2022/10/25 02:58:07;;;;;;;18.55;16.80;;;15.00;99.90;;;;;;4994527;28;20041;-84
2022/10/25 03:00:33;;;;;;;21.00;18.67;;;14.90;99.90;;;;;;4993647;28;20042;-84
2022/10/25 03:02:59;;;;;;;39.17;36.20;;;14.80;99.90;;;;;;4978065;28;20048;-84
2022/10/25 03:05:25;;;;;;;39.63;36.55;;;14.80;99.90;;;;;;4961922;28;20038;-84
2022/10/25 03:07:51;;;;;;;36.80;34.10;;;14.50;99.90;;;;;;4977726;28;20041;-84
2022/10/25 03:10:17;;;;;;;33.15;30.48;;;14.30;99.90;;;;;;5011253;28;20495;-84
2022/10/25 03:12:44;;;;;;;34.25;31.75;;;14.20;99.90;;;;;;4974816;28;20038;-84
2022/10/25 03:15:10;;;;;;;33.90;30.77;;;14.20;99.90;;;;;;4974921;28;20499;-84
2022/10/25 03:17:36;;;;;;;34.78;31.55;;;14.30;99.90;;;;;;4975248;28;20041;-84
2022/10/25 03:20:02;;;;;;;25.45;23.38;;;14.40;99.90;;;;;;4992780;28;20045;-84
2022/10/25 03:22:28;;;;;;;19.23;17.38;;;14.60;99.90;;;;;;4994553;28;20498;-84
2022/10/25 03:24:54;;;;;;;20.30;18.30;;;14.70;99.90;;;;;;4993796;28;20034;-84
2022/10/25 03:27:20;;;;;;;20.17;18.35;;;14.70;99.90;;;;;;5010199;28;20387;-83
2022/10/25 03:29:46;;;;;;;22.45;17.80;;;14.70;99.90;;;;;;4976432;28;20034;-84
2022/10/25 03:32:13;;;;;;;20.45;18.17;;;14.70;99.90;;;;;;4996463;28;20026;-85
2022/10/25 03:34:39;;;;;;;25.85;18.17;;;14.70;99.90;;;;;;5010626;28;20034;-83
2022/10/25 03:37:05;;;;;;;28.40;25.83;;;14.60;99.90;;;;;;4992435;28;20033;-85
2022/10/25 03:39:31;;;;;;;19.60;17.75;;;14.50;99.90;;;;;;4958101;28;20042;-84
2022/10/25 03:41:57;;;;;;;25.42;18.80;;;14.50;99.90;;;;;;4974478;28;20046;-86
2022/10/25 03:44:23;;;;;;;23.42;18.88;;;14.50;99.90;;;;;;4978498;28;20017;-87
2022/10/25 03:46:49;;;;;;;26.85;24.02;;;14.50;99.90;;;;;;4977969;28;20038;-85
2022/10/25 03:49:15;;;;;;;28.08;26.02;;;14.20;99.90;;;;;;4994154;28;20022;-88
2022/10/25 03:51:41;;;;;;;32.13;29.75;;;14.10;99.90;;;;;;4995052;28;20050;-87
2022/10/25 03:54:07;;;;;;;26.30;24.00;;;14.00;99.90;;;;;;4991324;28;20034;-88
2022/10/25 03:56:33;;;;;;;19.55;17.55;;;14.10;99.90;;;;;;4988345;28;20041;-88
2022/10/25 03:58:59;;;;;;;24.80;19.00;;;14.20;99.90;;;;;;4978642;28;20034;-86
2022/10/25 04:01:26;;;;;;;24.63;18.45;;;14.20;99.90;;;;;;5012534;28;20053;-89
2022/10/25 04:03:52;;;;;;;22.15;20.30;;;14.30;99.90;;;;;;4962869;28;20126;-88
2022/10/25 04:06:18;;;;;;;30.52;27.85;;;14.20;99.90;;;;;;5004574;28;20511;-86
2022/10/25 04:08:44;;;;;;;37.95;34.65;;;14.20;99.90;;;;;;4965224;28;20033;-86
2022/10/25 04:11:10;;;;;;;33.80;31.00;;;14.20;99.90;;;;;;4997871;28;20483;-85
2022/10/25 04:13:36;;;;;;;33.13;30.23;;;14.20;99.90;;;;;;4965456;28;20045;-87
2022/10/25 04:16:06;;;;;;;29.40;26.63;;;14.00;99.90;;;;;;4964856;28;20519;-87
2022/10/25 04:18:32;;;;;;;24.70;22.45;;;14.10;99.90;;;;;;4997406;28;20045;-87
2022/10/25 04:20:58;;;;;;;26.05;23.13;;;14.20;99.90;;;;;;4980006;28;20057;-87
2022/10/25 04:23:25;;;;;;;24.90;22.63;;;14.20;99.90;;;;;;4981650;28;20038;-87
2022/10/25 04:25:55;;;;;;;24.95;22.75;;;14.10;99.90;;;;;;4961636;28;20050;-86
2022/10/25 04:28:24;;;;;;;25.52;23.17;;;14.10;99.90;;;;;;4975117;28;20042;-86
2022/10/25 04:30:50;;;;;;;25.92;23.27;;;13.90;99.90;;;;;;4964196;28;20036;-87
2022/10/25 04:33:16;;;;;;;27.80;25.58;;;13.90;99.90;;;;;;4964628;28;20037;-87
2022/10/25 04:35:43;;;;;;;27.73;25.45;;;13.90;99.90;;;;;;4981490;28;20037;-86
2022/10/25 04:38:09;;;;;;;25.10;23.00;;;13.90;99.90;;;;;;4972247;28;20034;-87
2022/10/25 04:40:35;;;;;;;28.77;26.17;;;14.10;99.90;;;;;;4978394;28;20391;-86
2022/10/25 04:43:02;;;;;;;25.02;22.65;;;14.20;99.90;;;;;;4970089;28;20046;-87
2022/10/25 04:45:28;;;;;;;26.00;23.98;;;14.10;99.90;;;;;;4977517;28;20042;-87
2022/10/25 04:47:54;;;;;;;25.50;23.63;;;14.00;99.90;;;;;;4961216;28;20038;-87
2022/10/25 04:50:21;;;;;;;25.85;23.80;;;13.90;99.90;;;;;;4994143;28;20047;-87
2022/10/25 04:52:47;;;;;;;27.25;25.25;;;13.80;99.90;;;;;;4996243;28;20038;-87
2022/10/25 04:55:13;;;;;;;27.33;25.05;;;13.80;99.90;;;;;;4964383;28;20042;-87
2022/10/25 04:57:39;;;;;;;25.40;23.65;;;14.00;99.90;;;;;;4981495;28;20053;-87
2022/10/25 05:00:05;;;;;;;27.05;25.00;;;14.10;99.90;;;;;;4980630;28;20030;-86
2022/10/25 05:02:31;;;;;;;26.55;24.25;;;14.20;99.90;;;;;;4980590;28;20033;-87
2022/10/25 05:04:58;;;;;;;25.30;23.73;;;14.20;99.90;;;;;;4997590;28;20046;-87
2022/10/25 05:07:24;;;;;;;27.42;25.23;;;14.20;99.90;;;;;;4981348;28;20135;-87
2022/10/25 05:09:50;;;;;;;26.77;24.30;;;14.10;99.90;;;;;;4980482;28;20030;-88
2022/10/25 05:12:16;;;;;;;38.60;25.42;;;13.90;99.90;;;;;;4980544;28;20057;-87
2022/10/25 05:14:43;;;;;;;26.45;24.73;;;13.80;99.90;;;;;;4996523;28;20396;-87
2022/10/25 05:17:09;;;;;;;28.23;25.88;;;13.90;99.90;;;;;;4980297;28;20049;-87
2022/10/25 05:19:35;;;;;;;26.15;23.45;;;14.00;99.90;;;;;;4964290;28;20041;-87
2022/10/25 05:22:01;;;;;;;27.75;24.67;;;14.00;99.90;;;;;;4980029;28;20034;-86
2022/10/25 05:24:27;;;;;;;25.98;23.90;;;14.00;99.90;;;;;;4980283;28;20537;-86
2022/10/25 05:26:53;;;;;;;25.52;23.60;;;14.10;99.90;;;;;;5013271;28;20041;-86
2022/10/25 05:29:19;;;;;;;27.48;25.52;;;14.20;99.90;;;;;;4980960;28;20042;-88
2022/10/25 05:31:45;;;;;;;31.10;25.20;;;14.20;99.90;;;;;;4996585;28;20049;-87
2022/10/25 05:34:11;;;;;;;25.70;23.95;;;14.30;99.90;;;;;;4964072;28;20403;-87
2022/10/25 05:36:37;;;;;;;26.00;24.48;;;14.40;99.90;;;;;;4963270;28;20061;-87
2022/10/25 05:39:04;;;;;;;27.63;25.95;;;14.40;99.90;;;;;;4979929;28;20034;-87
2022/10/25 05:41:30;;;;;;;28.70;25.75;;;14.30;99.90;;;;;;4980179;28;20046;-87
2022/10/25 05:43:56;;;;;;;27.70;25.42;;;14.30;99.90;;;;;;4980712;28;20026;-90
2022/10/25 05:46:23;;;;;;;28.95;26.67;;;14.30;99.90;;;;;;4976436;28;20041;-83
2022/10/25 05:48:49;;;;;;;27.10;24.30;;;14.30;99.90;;;;;;4977968;28;20430;-84
2022/10/25 05:51:20;;;;;;;25.85;24.13;;;14.20;99.90;;;;;;4979801;28;20053;-85
2022/10/25 05:53:47;;;;;;;33.90;26.60;;;14.20;99.90;;;;;;4996124;28;20032;-86
2022/10/25 05:56:14;;;;;;;27.45;25.70;;;14.00;99.90;;;;;;4979481;28;20487;-86
2022/10/25 05:58:40;;;;;;;39.75;25.63;;;14.10;99.90;;;;;;4963423;28;20053;-84
2022/10/25 06:01:08;;;;;;;29.00;26.85;;;14.10;99.90;;;;;;4996536;28;20041;-87
2022/10/25 06:03:34;;;;;;;27.23;25.42;;;14.10;99.90;;;;;;4979023;28;20042;-85
2022/10/25 06:06:01;;;;;;;25.98;23.92;;;14.10;99.90;;;;;;4997143;28;20042;-85
2022/10/25 06:08:28;;;;;;;28.40;25.48;;;13.90;99.90;;;;;;4962384;28;20046;-84
2022/10/25 06:10:54;;;;;;;27.40;25.00;;;13.80;99.90;;;;;;4995905;28;20045;-85
2022/10/25 06:13:21;;;;;;;29.77;27.67;;;13.80;99.90;;;;;;4996142;28;20032;-85
2022/10/25 06:15:47;;;;;;;28.77;26.63;;;13.80;99.90;;;;;;5012704;28;20034;-85
2022/10/25 06:18:13;;;;;;;29.20;26.67;;;13.90;99.90;;;;;;5001087;28;20038;-85
2022/10/25 06:20:39;;;;;;;29.65;27.67;;;14.00;99.90;;;;;;5012561;28;20030;-85
2022/10/25 06:23:05;;;;;;;33.05;29.60;;;14.10;99.90;;;;;;4979361;28;20064;-84
2022/10/25 06:25:31;;;;;;;31.05;28.23;;;14.10;99.90;;;;;;4993919;28;20041;-86
2022/10/25 06:27:57;;;;;;;32.10;28.85;;;14.20;99.90;;;;;;5012748;28;20371;-86
2022/10/25 06:30:23;;;;;;;31.52;28.27;;;14.10;99.90;;;;;;5011354;28;20049;-85
2022/10/25 06:32:49;;;;;;;32.88;30.05;;;14.00;99.90;;;;;;5012114;28;20034;-86
2022/10/25 06:35:15;;;;;;;30.15;27.48;;;14.10;99.90;;;;;;4995144;28;20034;-85
2022/10/25 06:37:41;;;;;;;27.95;25.20;;;14.10;99.90;;;;;;5012618;28;20026;-86
2022/10/25 06:40:08;;;;;;;31.00;27.85;;;14.10;99.90;;;;;;4982939;28;20034;-91
2022/10/25 06:42:34;;;;;;;30.80;28.23;;;14.00;99.90;;;;;;5001523;28;20022;-90
2022/10/25 06:45:00;;;;;;;41.60;30.75;;;13.90;99.90;;;;;;4968356;28;20395;-86
2022/10/25 06:47:26;;;;;;;31.95;29.10;;;13.80;99.90;;;;;;4995124;28;20022;-86
2022/10/25 06:49:52;;;;;;;37.60;29.52;;;13.90;99.90;;;;;;4996700;28;20489;-84
2022/10/25 06:52:18;;;;;;;32.00;29.48;;;13.90;99.90;;;;;;4997708;28;20038;-85
2022/10/25 06:54:45;;;;;;;32.78;30.52;;;13.90;99.90;;;;;;4978187;28;20495;-84
2022/10/25 06:57:11;;;;;;;32.67;30.27;;;13.90;99.90;;;;;;4997343;28;20037;-91
2022/10/25 06:59:37;;;;;;;32.30;29.42;;;14.00;99.90;;;;;;4983476;28;20037;-88
2022/10/25 07:02:03;;;;;;;34.30;30.67;;;13.90;99.90;;;;;;5016610;28;20406;-90
2022/10/25 07:04:31;;;;;;;33.92;31.83;;;13.80;99.90;;;;;;5014259;28;20034;-89
2022/10/25 07:06:58;;;;;;;32.38;30.13;;;13.90;99.90;;;;;;4996012;28;20399;-86
2022/10/25 07:09:24;;;;;;;36.08;32.88;;;13.90;99.90;;;;;;4995790;28;20086;-89
2022/10/25 07:11:50;;;;;;;34.78;32.45;;;13.80;99.90;;;;;;4997693;28;20045;-89
2022/10/25 07:14:16;;;;;;;37.05;33.72;;;13.90;99.90;;;;;;4965126;28;20427;-87
2022/10/25 07:16:42;;;;;;;43.90;33.38;;;13.90;99.90;;;;;;4963583;28;20045;-90
2022/10/25 07:19:09;;;;;;;31.90;29.65;;;13.80;99.90;;;;;;4968014;28;20042;-89
2022/10/25 07:21:35;;;;;;;34.33;31.42;;;13.70;99.90;;;;;;4984088;28;20052;-89
2022/10/25 07:24:01;;;;;;;33.95;30.90;;;13.70;99.90;;;;;;4984353;28;20038;-85
2022/10/25 07:26:32;;;;;;;34.50;31.58;;;13.60;99.90;;;;;;5000694;28;20049;-88
2022/10/25 07:28:59;;;;;;;28.80;26.77;;;13.60;99.90;;;;;;4980519;28;20034;-83
2022/10/25 07:31:31;;;;;;;31.45;29.10;;;13.50;99.90;;;;;;4976127;28;20042;-87
2022/10/25 07:33:59;;;;;;;32.70;29.52;;;13.50;99.90;;;;;;4979152;28;20603;-84
2022/10/25 07:36:25;;;;;;;33.05;30.52;;;13.50;99.90;;;;;;4989904;28;20379;-84
2022/10/25 07:38:51;;;;;;;31.60;29.58;;;13.50;99.90;;;;;;4993792;28;20029;-85
2022/10/25 07:41:17;;;;;;;35.95;33.20;;;13.60;99.90;;;;;;4982301;28;20030;-88
2022/10/25 07:43:43;;;;;;;35.05;32.92;;;13.60;99.90;;;;;;4967692;28;20060;-88
2022/10/25 07:46:09;;;;;;;33.05;30.83;;;13.60;99.90;;;;;;4982863;28;20042;-87
2022/10/25 07:48:36;;;;;;;34.10;31.65;;;13.60;99.90;;;;;;4964039;28;20038;-87
2022/10/25 07:51:03;;;;;;;34.55;31.77;;;13.60;99.90;;;;;;4997013;28;20038;-87
2022/10/25 07:53:30;;;;;;;36.83;34.38;;;13.60;99.90;;;;;;4964782;28;20394;-89
2022/10/25 07:55:56;;;;;;;33.90;31.83;;;13.60;99.90;;;;;;4979457;28;20042;-87
2022/10/25 07:58:22;;;;;;;34.72;32.28;;;13.60;99.90;;;;;;4978808;28;20411;-84
2022/10/25 08:00:48;;;;;;;36.55;34.33;;;13.70;99.90;;;;;;4992680;28;20030;-84
2022/10/25 08:03:15;;;;;;;39.28;36.58;;;13.70;99.90;;;;;;4958402;28;20042;-87
2022/10/25 08:05:44;;;;;;;35.67;33.58;;;13.80;99.90;;;;;;4976525;28;20050;-85
2022/10/25 08:08:11;;;;;;;37.47;35.15;;;13.70;99.90;;;;;;4973309;28;20373;-87
2022/10/25 08:10:37;;;;;;;31.15;28.85;;;13.80;99.90;;;;;;5015723;28;20037;-89
2022/10/25 08:13:03;;;;;;;33.45;30.95;;;13.80;99.90;;;;;;4963365;28;20042;-86
2022/10/25 08:15:29;;;;;;;35.28;32.65;;;13.80;99.90;;;;;;4960349;28;20041;-86
2022/10/25 08:17:59;;;;;;;34.58;32.28;;;13.80;99.90;;;;;;4977200;28;20100;-86
2022/10/25 08:20:26;;;;;;;33.33;30.88;;;13.90;99.90;;;;;;4985948;28;20034;-92
2022/10/25 08:22:52;;;;;;;31.30;29.10;;;13.90;99.90;;;;;;5125362;22;20024;-91
2022/10/25 08:25:18;;;;;;;31.80;29.45;;;13.70;99.90;;;;;;5029044;28;20052;-89
2022/10/25 08:27:44;;;;;;;28.33;26.27;;;13.80;99.90;;;;;;5018237;28;20259;-83
2022/10/25 08:30:11;;;;;;;29.77;27.23;;;13.80;99.90;;;;;;5033517;28;20036;-84
2022/10/25 08:32:37;;;;;;;31.48;29.27;;;13.80;99.90;;;;;;5018725;28;20056;-86
2022/10/25 08:35:03;;;;;;;33.05;30.60;;;13.90;99.90;;;;;;5048539;28;20024;-85
2022/10/25 08:37:30;;;;;;;36.90;34.45;;;13.90;99.90;;;;;;5053168;28;20048;-86
2022/10/25 08:39:56;;;;;;;35.10;32.25;;;14.10;99.90;;;;;;5020211;28;20036;-85
2022/10/25 08:42:44;;;;;;;33.95;31.45;;;14.30;99.90;;;;;;5047745;28;20048;-86
2022/10/25 08:45:22;;;;;;;28.40;26.00;;;14.50;99.90;;;;;;5040237;28;20047;-83
2022/10/25 08:47:50;;;;;;;24.08;21.98;;;14.60;99.90;;;;;;5030769;28;20381;-81
2022/10/25 08:50:42;;;;;;;22.45;20.27;;;14.80;99.90;;;;;;5016411;28;20040;-83
2022/10/25 08:53:35;;;;;;;22.45;19.73;;;14.90;99.90;;;;;;5055815;28;20499;-83
2022/10/25 08:56:01;;;;;;;21.98;20.17;;;15.10;99.90;;;;;;5061095;28;20482;-84
2022/10/25 08:58:50;;;;;;;41.30;38.28;;;15.30;99.90;;;;;;5034261;28;20036;-84
2022/10/25 09:01:56;;;;;;;35.28;32.55;;;15.50;99.90;;;;;;5044846;28;20378;-83
2022/10/25 09:04:22;;;;;;;17.60;15.95;;;15.50;99.90;;;;;;5029922;28;20489;-86
2022/10/25 09:06:57;;;;;;;18.55;16.67;;;15.60;99.90;;;;;;5038048;28;20028;-84
2022/10/25 09:09:36;;;;;;;17.33;15.77;;;15.70;99.90;;;;;;5063159;28;20028;-87
2022/10/25 09:12:17;;;;;;;17.40;15.80;;;15.70;99.90;;;;;;5040248;28;20055;-85
2022/10/25 09:15:15;;;;;;;17.75;15.90;;;15.80;99.90;;;;;;5065615;28;20398;-85
2022/10/25 09:17:49;;;;;;;20.90;18.92;;;15.90;99.90;;;;;;5013594;28;20393;-85
2022/10/25 09:20:20;;;;;;;22.17;20.35;;;16.00;99.90;;;;;;5056109;28;20033;-83
2022/10/25 09:22:46;;;;;;;26.27;23.80;;;16.10;99.90;;;;;;5055873;28;20021;-83
2022/10/25 09:25:24;;;;;;;25.33;23.35;;;16.00;99.90;;;;;;5038790;28;20044;-82
2022/10/25 09:27:58;;;;;;;25.50;23.27;;;16.10;99.90;;;;;;5054169;28;20473;-82
2022/10/25 09:30:25;;;;;;;25.02;22.63;;;16.20;99.90;;;;;;5055519;28;20473;-84
2022/10/25 09:32:56;;;;;;;24.45;22.67;;;16.20;99.90;;;;;;5054682;28;20048;-84
2022/10/25 09:35:28;;;;;;;22.45;20.50;;;16.20;99.90;;;;;;5038350;28;20485;-85
2022/10/25 09:38:00;;;;;;;21.60;19.90;;;16.20;99.90;;;;;;5069289;28;20028;-87
2022/10/25 09:40:28;;;;;;;24.15;22.30;;;16.20;99.90;;;;;;5023353;28;20481;-88
2022/10/25 09:42:55;;;;;;;23.00;20.88;;;16.30;99.90;;;;;;5024284;28;20401;-88
2022/10/25 09:45:52;;;;;;;22.90;21.15;;;16.40;99.90;;;;;;5039426;28;20489;-87
2022/10/25 09:48:22;;;;;;;21.27;19.23;;;16.50;99.90;;;;;;5034595;28;20036;-87
2022/10/25 09:50:49;;;;;;;20.35;18.65;;;16.50;99.90;;;;;;5055638;28;20381;-86
2022/10/25 09:53:16;;;;;;;20.05;18.23;;;16.60;99.90;;;;;;5057564;28;20036;-94
2022/10/25 09:55:55;;;;;;;21.88;20.17;;;16.60;99.90;;;;;;5041024;28;20032;-89
2022/10/25 09:58:32;;;;;;;19.55;17.95;;;16.70;99.90;;;;;;5058179;28;20036;-92
2022/10/25 10:01:01;;;;;;;21.10;19.30;;;16.70;99.90;;;;;;5023549;28;20048;-93
2022/10/25 10:03:28;;;;;;;22.48;20.25;;;16.70;99.90;;;;;;5050664;28;20029;-87
2022/10/25 10:05:56;;;;;;;18.40;16.88;;;16.70;99.90;;;;;;5043176;28;20036;-95
2022/10/25 10:08:23;;;;;;;19.77;18.30;;;16.70;99.90;;;;;;5044607;28;20028;-95
2022/10/25 10:10:49;;;;;;;21.92;19.88;;;16.70;99.90;;;;;;5027722;28;20041;-95
2022/10/25 10:13:42;;;;;;;20.60;18.77;;;16.70;99.90;;;;;;5048981;28;20039;-93
2022/10/25 10:16:34;;;;;;;20.20;18.67;;;16.80;99.90;;;;;;5052242;28;20020;-94
2022/10/25 10:19:22;;;;;;;20.25;18.60;;;16.90;99.90;;;;;;5040481;28;20031;-92
2022/10/25 10:21:57;;;;;;;19.50;17.85;;;16.90;99.90;;;;;;5026776;28;20037;-93
2022/10/25 10:24:35;;;;;;;20.90;19.25;;;17.00;99.90;;;;;;5053110;28;20051;-94
2022/10/25 10:27:05;;;;;;;20.20;18.23;;;17.20;99.90;;;;;;5052727;28;20033;-94
2022/10/25 10:29:36;;;;;;;19.55;18.02;;;17.30;99.90;;;;;;5034423;28;20059;-94
2022/10/25 10:32:20;;;;;;;22.42;20.45;;;17.40;99.90;;;;;;5051489;28;20044;-92
2022/10/25 10:34:51;;;;;;;20.95;19.33;;;17.40;99.90;;;;;;5035074;28;20040;-93
2022/10/25 10:37:26;;;;;;;21.90;20.13;;;17.60;99.90;;;;;;5043571;28;20036;-91
2022/10/25 10:40:22;;;;;;;22.17;20.38;;;17.60;99.90;;;;;;5045625;28;20036;-94
2022/10/25 10:42:48;;;;;;;24.50;22.50;;;17.60;99.90;;;;;;5043527;28;20050;-92
2022/10/25 10:45:18;;;;;;;21.85;20.30;;;17.60;99.90;;;;;;5052237;28;20036;-91
2022/10/25 10:47:50;;;;;;;24.05;22.17;;;17.60;99.90;;;;;;5024557;28;20386;-92
2022/10/25 10:50:23;;;;;;;21.67;19.95;;;17.70;99.90;;;;;;5072347;28;20041;-87
2022/10/25 10:52:52;;;;;;;20.85;19.30;;;17.90;99.90;;;;;;5047139;28;20393;-90
2022/10/25 10:55:24;;;;;;;22.52;20.88;;;18.00;99.90;;;;;;5073787;28;20043;-89
2022/10/25 10:57:51;;;;;;;19.60;18.30;;;18.00;99.90;;;;;;5077827;28;20067;-94
2022/10/25 11:00:28;;;;;;;22.00;20.20;;;18.10;99.90;;;;;;5056472;28;20039;-92
2022/10/25 11:02:54;;;;;;;18.67;17.27;;;18.10;99.90;;;;;;5040677;28;20020;-91
2022/10/25 11:05:20;;;;;;;20.17;18.83;;;18.20;99.90;;;;;;5039207;28;20029;-90
2022/10/25 11:07:56;;;;;;;20.60;19.15;;;18.20;99.90;;;;;;5055919;28;20041;-93
2022/10/25 11:10:27;;;;;;;21.45;19.73;;;18.30;99.90;;;;;;5033935;28;20401;-91
2022/10/25 11:13:09;;;;;;;;;;;18.40;99.90;;;;;;5049061;28;20393;-93
2022/10/25 11:15:49;;;;;;;19.15;17.83;;;18.40;99.90;;;;;;5055895;28;19919;-93
2022/10/25 11:18:15;;;;;;;20.50;19.00;;;18.40;99.90;;;;;;5041171;28;20377;-91
2022/10/25 11:20:57;;;;;;;22.35;20.52;;;18.50;99.90;;;;;;5021933;28;20051;-90
2022/10/25 11:23:32;;;;;;;20.92;19.38;;;18.50;99.90;;;;;;5023774;28;20048;-93
2022/10/25 11:26:02;;;;;;;21.75;20.23;;;18.50;99.90;;;;;;5044739;28;21168;-87
2022/10/25 11:28:50;;;;;;;21.08;19.77;;;18.50;99.90;;;;;;5028001;28;20051;-85
2022/10/25 11:32:07;;;;;;;21.38;19.88;;;18.60;99.80;;;;;;5035991;28;20033;-85
2022/10/25 11:34:51;;;;;;;21.40;19.77;;;18.60;99.90;;;;;;4970015;28;20031;-85
2022/10/25 11:37:32;;;;;;;18.70;17.30;;;18.60;99.90;;;;;;4954724;28;20038;-86
2022/10/25 11:40:17;;;;;;;20.83;19.42;;;18.60;99.90;;;;;;4957198;28;20423;-85
2022/10/25 11:43:25;;;;;;;20.45;19.13;;;18.60;99.90;;;;;;4989359;28;20043;-85
2022/10/25 11:46:02;;;;;;;20.73;19.40;;;18.60;99.80;;;;;;4980179;28;20039;-85
2022/10/25 11:48:49;;;;;;;21.40;20.00;;;18.60;99.90;;;;;;4990290;28;20042;-85
2022/10/25 11:51:42;;;;;;;19.77;18.38;;;18.70;99.80;;;;;;4989099;28;20046;-85
2022/10/25 11:54:32;;;;;;;19.33;18.02;;;18.60;99.90;;;;;;4989358;28;20034;-85
2022/10/25 11:57:04;;;;;;;19.80;18.42;;;18.70;99.70;;;;;;4973125;28;20455;-84
2022/10/25 11:59:43;;;;;;;20.35;18.75;;;18.70;99.60;;;;;;4972687;28;20041;-85
2022/10/25 12:02:30;;;;;;;19.65;18.30;;;18.60;99.50;;;;;;4973060;28;20395;-86
2022/10/25 12:05:10;;;;;;;18.88;17.58;;;18.60;99.30;;;;;;4989363;28;20077;-85
2022/10/25 12:07:48;;;;;;;19.27;17.77;;;18.60;99.50;;;;;;4988834;28;20029;-86
2022/10/25 12:10:30;;;;;;;19.45;18.00;;;18.60;99.60;;;;;;5011873;28;20430;-84
2022/10/25 12:13:27;;;;;;;20.40;18.65;;;18.70;99.50;;;;;;5052465;28;20036;-84
2022/10/25 12:15:55;;;;;;;16.45;15.32;;;18.60;99.20;;;;;;5019712;28;20040;-83
2022/10/25 12:19:07;;;;;;;17.75;16.27;;;18.60;98.90;;;;;;5035332;28;20033;-84
2022/10/25 12:21:53;;;;;;;17.60;16.38;;;18.70;98.70;;;;;;4972662;28;20062;-84
2022/10/25 12:24:22;;;;;;;16.23;15.05;;;18.70;97.80;;;;;;4974424;28;20042;-83
2022/10/25 12:26:49;;;;;;;17.65;16.33;;;18.70;98.10;;;;;;4960308;28;20042;-83
2022/10/25 12:29:36;;;;;;;17.23;15.75;;;18.70;98.50;;;;;;4960814;28;20038;-84
2022/10/25 12:32:03;;;;;;;18.67;17.08;;;18.80;98.70;;;;;;4959188;28;20558;-83
2022/10/25 12:34:44;;;;;;;16.90;15.65;;;18.80;98.80;;;;;;4976518;28;20030;-84
2022/10/25 12:37:33;;;;;;;20.85;19.35;;;18.70;98.90;;;;;;4961832;28;20045;-83
2022/10/25 12:39:59;;;;;;;20.35;18.65;;;18.80;99.30;;;;;;4971360;28;20057;-86
2022/10/25 12:42:51;;;;;;;20.52;18.85;;;18.80;99.20;;;;;;4976910;28;20495;-86
2022/10/25 12:45:32;;;;;;;17.50;16.25;;;18.80;99.30;;;;;;4945126;28;20042;-87
2022/10/25 12:48:06;;;;;;;18.88;17.48;;;18.70;99.20;;;;;;4951442;29;20440;-87
2022/10/25 12:50:44;;;;;;;19.73;18.33;;;18.70;99.40;;;;;;4921943;29;20043;-88